El Palomar, Argentina

10:00 PM ART on February 05, 2016 (GMT -0300)
IBUENOSA148 | | Change Station
CLOSE
Current Station
Personal Weather Station
Location: Villa Sarmiento, BUENOS AIRES
Elevation: 85 ft
Nearby Weather Stations

Elev 85 ft 34.63 °S, 58.57 °W | Updated 5 seconds ago

Clear
Clear
81.9 °F
Feels Like 86 °F
N
6.9
Wind Variable Wind from NE
Gusts 12.1 mph

Today
High -- | Low -- °F
--% Chance of Precip.
Yesterday
High -- | Low -- °F
Precip. -- in
Pressure 29.95 in
Visibility -9999.0 miles
Clouds
Heat Index 86 °F
Dew Point 70 °F
Humidity 68%
Rainfall 0.00 in
Snow Depth Not available.
6:18 AM 7:57 PM
Waning Crescent, 8% visible
METAR SADF 060000Z 09009KT CAVOK 27/22 Q1014
Pressure 29.95 in
Visibility -9999.0 miles
Clouds
Heat Index 86 °F
Dew Point 70 °F
Humidity 68%
Rainfall 0.00 in
Snow Depth Not available.
6:18 AM 7:57 PM
Waning Crescent, 8% visible
METAR SADF 060000Z 09009KT CAVOK 27/22 Q1014

10-Day Weather Forecast

No radar image for this location.
×

Almanac

Astronomy

Feb. 05, 2016 Rise Set
Actual Time
Civil Twilight
Nautical Twilight
Astronomical Twilight
Moon
Length of Visible Light
Length of Day
Tomorrow will be .
, % of the Moon is Illuminated

Today's Extremes

Country Highs Country Lows

Community

WunderPhotos

Upload Photos

1,890,900 photos uploaded!

WunderBlog® & News

Nearby

Air Quality

  Air Quality AQ Index Pollutant
Not available.

Snow Depth

Station Depth Elevation

Earthquake Activity

City Distance Mag. Time & Date
Minimum magnitude displayed is 2.5.

Coastal Water Temperatures

Place Temperature

Stations

Nearby Weather Stations

Station Location Temp. Windchill Dew Point Humidity Wind Precip. Elev Updated Type